Portada
METAR-TAF:

METAR-TAF

Aeropuertos :

Aeropuerto de Nueva Loja

Nueva Loja, Ecuador

latitud: 00-05-33N, longitud: 076-52-10W, altitud: 299 m

Observación

El informe se hizo hace 5 horas y 3 minutos, a las 23:00 UTC
Viento 2 kt del noreste
Temperatura 28°C
Humedad 79%
Presión 1006 hPa
Visibilidad 10 km o más
sin nubes por debajo de 1500 m y sin presencia de cumulonimbus.

METAR: SENL 212300Z 04002KT CAVOK 28/24 Q1006 RMK A2973

Hora: 23:03 (04:03 UTC)


TAF: falta

Observaciones y pronósticos meteorológicos de más de 4000 aeropuertos (mensajes METAR y TAF).

Los puntos amarillos y rojos representan las estaciones disponibles.

Ponga el ratón en el punto deseado para ver el nombre de la estación.

Haga clic para ver las observaciones y los pronósticos meteorológicos.

Para cambiar el mapa : haga clic en los botones verdes con una cruz de color negro para hacer un zoom, en el botón verde con un guión para alejar o en las flechas verdes para mapas adyacentes.


METAR-TAF: